Thunder radar more information blitzortung!


Radar de pluja more information rain snow radar


Visita la nostra xarxa de llocs de meteo:

Template documentation
and downloads

And another site



No particular awareness of the weather is required.    There are no Weather-warnings

Pagina Historial Weather Underground text

Diari Resum Juliol 18, 2017 Unitats:  Imperial    Mètric   Tant
« Previous Dia
SegĂźent Dia »
Diari Setmana Mensual Anual Personalitzada
  Maxima: Minima: Media:
Temperatura: TemperatureC °F 19.9 °F 28.2 °F
Punt de rosada: DewpointC °F 10.8 °F 15 °F
Humitat: Humidity % 28 % 47 %
Wind Speed: WindSpeedKMH mph 0.0 mph 6.8 mph
RĂ fegues de vent: WindSpeedGustKMH mph - -
Vent:- - SSW
Pression baro: PressurehPa in 1012.8 in -
Precipitacions: 0.0 in    
Historical Graphs
 
 
Dades de taula per Juliol 18, 2017
Temps Temperatura Punt de rosada Pression baro Vent Wind Speed RĂ fegues de vent Humitat Rainfall Rate (Hourly)
TemperatureC °F DewpointC °F PressurehPa in Calm     Humidity % HourlyPrecipMM in
00:00 20.9 °F 16.3 °F 1015.8 in Calm   1.6 mph 75 % 0.0 in
00:04 23.4 °F 16.4 °F 1015.8 in ENE 1.9 mph 1.9 mph 65 % 0.0 in
00:10 20.8 °F 16.2 °F 1015.8 in North 1.6 mph 1.6 mph 75 % 0.0 in
00:20 20.7 °F 16.3 °F 1015.8 in NNE 1.6 mph 3.2 mph 76 % 0.0 in
00:30 20.6 °F 16.2 °F 1014.8 in NE 1.6 mph 3.2 mph 76 % 0.0 in
00:40 20.4 °F 16.0 °F 1014.8 in Calm   3.2 mph 76 % 0.0 in
00:50 20.2 °F 15.8 °F 1014.8 in Calm     76 % 0.0 in
01:00 20.0 °F 15.7 °F 1014.8 in Calm     76 % 0.0 in
01:10 20.0 °F 15.8 °F 1014.8 in SE 1.6 mph 1.6 mph 77 % 0.0 in
01:25 20.0 °F 15.8 °F 1014.8 in Calm   3.2 mph 77 % 0.0 in
01:35 19.9 °F 15.7 °F 1014.8 in ENE 1.6 mph   77 % 0.0 in
01:45 19.9 °F 15.9 °F 1014.8 in Calm   1.6 mph 78 % 0.0 in
01:55 19.9 °F 15.9 °F 1014.8 in Calm     78 % 0.0 in
02:05 19.9 °F 15.9 °F 1014.8 in Calm     78 % 0.0 in
02:15 20.0 °F 16.1 °F 1014.8 in Calm   1.6 mph 78 % 0.0 in
02:25 20.2 °F 16.1 °F 1014.8 in Calm   1.6 mph 77 % 0.0 in
02:35 20.4 °F 16.2 °F 1014.8 in South 1.6 mph 4.8 mph 77 % 0.0 in
02:45 20.6 °F 16.0 °F 1015.8 in Calm   3.2 mph 75 % 0.0 in
02:55 21.0 °F 16.2 °F 1014.8 in Calm   4.8 mph 74 % 0.0 in
03:05 21.3 °F 16.3 °F 1014.8 in NNE 1.6 mph 3.2 mph 73 % 0.0 in
03:15 21.6 °F 16.3 °F 1015.8 in NE 1.6 mph 4.8 mph 72 % 0.0 in
03:25 21.3 °F 15.8 °F 1014.8 in NE 3.2 mph 4.8 mph 71 % 0.0 in
03:35 21.6 °F 16.1 °F 1014.8 in NE 1.6 mph 4.8 mph 71 % 0.0 in
03:45 22.4 °F 16.4 °F 1014.8 in NE 3.2 mph 4.8 mph 69 % 0.0 in
03:55 22.8 °F 16.6 °F 1015.8 in ENE 3.2 mph 4.8 mph 68 % 0.0 in
04:05 22.7 °F 16.0 °F 1015.8 in NE 3.2 mph 6.4 mph 66 % 0.0 in
04:15 23.5 °F 16.8 °F 1015.8 in NE 3.2 mph 6.4 mph 66 % 0.0 in
04:25 23.9 °F 16.9 °F 1015.8 in NE 1.6 mph 6.4 mph 65 % 0.0 in
04:35 25.2 °F 17.2 °F 1015.8 in NE 1.6 mph 1.6 mph 61 % 0.0 in
04:45 26.0 °F 18.2 °F 1015.8 in NNW 3.2 mph 4.8 mph 62 % 0.0 in
04:55 25.5 °F 17.7 °F 1015.8 in NNE 1.6 mph 3.2 mph 62 % 0.0 in
05:05 25.5 °F 17.9 °F 1015.8 in NE 4.8 mph 6.4 mph 63 % 0.0 in
05:15 25.5 °F 17.9 °F 1015.8 in ENE 3.2 mph 4.8 mph 63 % 0.0 in
05:25 26.0 °F 18.2 °F 1015.8 in ENE 1.6 mph 4.8 mph 62 % 0.0 in
05:35 27.1 °F 18.7 °F 1015.8 in West 4.8 mph 4.8 mph 60 % 0.0 in
05:45 27.7 °F 18.7 °F 1015.8 in SSW 4.8 mph 6.4 mph 58 % 0.0 in
10:49 28.2 °F 18.9 °F 1015.8 in South 3.7 mph 3.7 mph 57 % 0.0 in
10:54 28.1 °F 18.5 °F 1015.8 in South 5.6 mph 6.1 mph 56 % 0.0 in
10:59 28.0 °F 18.1 °F 1015.8 in SW 6.1 mph 6.1 mph 55 % 0.0 in
11:05 28.0 °F 17.8 °F 1015.8 in West 7.4 mph 7.4 mph 54 % 0.0 in
11:10 28.4 °F 17.6 °F 1015.8 in SSW 7.4 mph 7.4 mph 52 % 0.0 in
11:15 28.7 °F 17.6 °F 1015.8 in SSW 11.1 mph 11.1 mph 51 % 0.0 in
11:20 28.7 °F 17.6 °F 1015.8 in SSE 9.3 mph 9.3 mph 51 % 0.0 in
11:25 28.8 °F 17.3 °F 1015.8 in SW 18.5 mph 18.5 mph 50 % 0.0 in
11:30 29.3 °F 17.5 °F 1015.8 in SSW 3.7 mph 6.1 mph 49 % 0.0 in
11:35 29.2 °F 17.4 °F 1015.8 in West 13.0 mph 13.0 mph 49 % 0.0 in
11:40 29.1 °F 17.3 °F 1014.8 in WSW 3.2 mph 9.7 mph 49 % 0.0 in
11:45 29.7 °F 17.8 °F 1014.8 in WSW 3.2 mph 9.7 mph 49 % 0.0 in
11:50 29.6 °F 17.8 °F 1014.8 in WSW 9.5 mph 9.5 mph 49 % 0.0 in
11:55 29.7 °F 17.8 °F 1015.8 in WSW 9.5 mph 9.5 mph 49 % 0.0 in
12:00 29.9 °F 17.7 °F 1015.8 in SSW 9.3 mph 9.3 mph 48 % 0.0 in
12:05 30.2 °F 18.0 °F 1015.8 in WSW 11.1 mph 11.1 mph 48 % 0.0 in
12:10 30.0 °F 17.8 °F 1015.8 in WSW 9.3 mph 9.3 mph 48 % 0.0 in
12:15 30.3 °F 18.1 °F 1015.8 in SW 11.1 mph 11.1 mph 48 % 0.0 in
12:20 30.3 °F 17.7 °F 1015.8 in SW 8.0 mph 9.7 mph 47 % 0.0 in
12:25 30.7 °F 18.1 °F 1014.8 in SW 9.7 mph 12.9 mph 47 % 0.0 in
12:30 30.6 °F 17.6 °F 1014.8 in SW 4.8 mph 12.9 mph 46 % 0.0 in
12:35 31.3 °F 18.3 °F 1014.8 in ENE 5.6 mph 5.6 mph 46 % 0.0 in
12:40 31.7 °F 18.3 °F 1014.8 in East 7.4 mph 7.4 mph 45 % 0.0 in
12:45 31.7 °F 17.9 °F 1014.8 in South 9.3 mph 9.3 mph 44 % 0.0 in
12:50 32.1 °F 17.9 °F 1014.8 in WSW 4.7 mph 5.3 mph 43 % 0.0 in
12:55 32.5 °F 18.3 °F 1014.8 in SSW 13.0 mph 13.0 mph 43 % 0.0 in
13:00 31.8 °F 17.7 °F 1014.8 in SW 5.6 mph 5.6 mph 43 % 0.0 in
13:05 31.8 °F 17.3 °F 1014.8 in SW 9.3 mph 9.3 mph 42 % 0.0 in
13:10 31.7 °F 17.2 °F 1014.8 in SW 7.4 mph 7.6 mph 42 % 0.0 in
13:15 31.5 °F 17.1 °F 1014.8 in SSE 3.7 mph 6.1 mph 42 % 0.0 in
13:20 31.9 °F 17.0 °F 1014.8 in West 13.0 mph 13.0 mph 41 % 0.0 in
13:21 32.1 °F 17.2 °F 1014.8 in West 9.3 mph 9.3 mph 41 % 0.0 in
13:26 32.7 °F 17.3 °F 1014.8 in SSW 9.0 mph 9.0 mph 40 % 0.0 in
13:31 32.8 °F 17.0 °F 1014.8 in SW 13.0 mph 13.0 mph 39 % 0.0 in
13:37 32.4 °F 16.7 °F 1014.8 in SW 13.7 mph 13.7 mph 39 % 0.0 in
13:42 32.8 °F 17.0 °F 1014.8 in SW 8.7 mph 8.7 mph 39 % 0.0 in
13:47 33.3 °F 16.2 °F 1014.8 in SSE 11.1 mph 11.1 mph 36 % 0.0 in
13:52 33.2 °F 16.6 °F 1014.8 in SW 11.1 mph 11.1 mph 37 % 0.0 in
13:57 33.5 °F 16.4 °F 1014.8 in South 5.6 mph 5.8 mph 36 % 0.0 in
14:02 33.5 °F 16.8 °F 1014.8 in SE 9.3 mph 9.3 mph 37 % 0.0 in
14:07 33.3 °F 16.2 °F 1014.8 in SW 12.6 mph 12.6 mph 36 % 0.0 in
14:12 33.0 °F 16.4 °F 1014.8 in SW 13.0 mph 13.0 mph 37 % 0.0 in
14:17 33.3 °F 16.2 °F 1014.8 in WSW 12.6 mph 12.6 mph 36 % 0.0 in
14:22 33.6 °F 16.4 °F 1014.8 in SW 7.4 mph 7.4 mph 36 % 0.0 in
14:27 33.6 °F 16.0 °F 1014.8 in SSW 5.3 mph 5.3 mph 35 % 0.0 in
14:32 33.6 °F 16.4 °F 1014.8 in SW 14.8 mph 14.8 mph 36 % 0.0 in
14:37 33.8 °F 16.7 °F 1013.8 in SW 7.4 mph 7.4 mph 36 % 0.0 in
14:42 33.8 °F 16.7 °F 1013.8 in West 6.4 mph 6.4 mph 36 % 0.0 in
14:48 33.2 °F 15.7 °F 1013.8 in WNW 10.0 mph 10.0 mph 35 % 0.0 in
14:53 32.7 °F 15.7 °F 1013.8 in SSW 16.7 mph 16.7 mph 36 % 0.0 in
14:58 32.9 °F 15.8 °F 1013.8 in SE 13.0 mph 13.0 mph 36 % 0.0 in
15:03 33.2 °F 15.7 °F 1013.8 in SW 13.7 mph 13.7 mph 35 % 0.0 in
15:08 33.0 °F 15.1 °F 1013.8 in SSW 9.3 mph 9.3 mph 34 % 0.0 in
15:14 33.2 °F 15.7 °F 1013.8 in SW 9.3 mph 9.3 mph 35 % 0.0 in
15:19 33.4 °F 15.8 °F 1013.8 in SW 9.3 mph 9.3 mph 35 % 0.0 in
15:24 33.6 °F 15.6 °F 1013.8 in SSW 9.3 mph 9.3 mph 34 % 0.0 in
15:29 33.5 °F 15.5 °F 1013.8 in SW 7.4 mph 7.4 mph 34 % 0.0 in
15:34 33.2 °F 14.8 °F 1013.8 in WSW 14.8 mph 14.8 mph 33 % 0.0 in
15:39 33.0 °F 14.6 °F 1013.8 in SW 14.8 mph 14.8 mph 33 % 0.0 in
15:44 33.6 °F 15.1 °F 1013.8 in South 7.4 mph 7.4 mph 33 % 0.0 in
15:49 33.8 °F 15.3 °F 1013.8 in WSW 16.4 mph 16.4 mph 33 % 0.0 in
15:54 33.7 °F 14.7 °F 1013.8 in NNE 7.4 mph 7.4 mph 32 % 0.0 in
15:59 33.7 °F 14.7 °F 1013.8 in SW 13.0 mph 13.0 mph 32 % 0.0 in
16:05 33.3 °F 13.9 °F 1013.8 in SW 15.6 mph 15.6 mph 31 % 0.0 in
16:10 33.4 °F 13.9 °F 1013.8 in SSW 11.1 mph 11.1 mph 31 % 0.0 in
16:15 33.8 °F 14.3 °F 1013.8 in SW 16.7 mph 16.7 mph 31 % 0.0 in
16:20 33.8 °F 14.3 °F 1013.8 in SW 9.3 mph 9.3 mph 31 % 0.0 in
16:25 33.7 °F 14.2 °F 1012.8 in South 8.7 mph 8.7 mph 31 % 0.0 in
16:30 33.4 °F 13.4 °F 1012.8 in SW 14.8 mph 14.8 mph 30 % 0.0 in
16:35 33.2 °F 12.8 °F 1012.8 in South 11.1 mph 11.1 mph 29 % 0.0 in
16:40 33.4 °F 12.9 °F 1014.8 in SW 13.0 mph 13.0 mph 29 % 0.0 in
16:45 33.3 °F 12.8 °F 1014.8 in SW 14.8 mph 14.8 mph 29 % 0.0 in
16:50 33.4 °F 12.9 °F 1014.8 in SW 7.4 mph 7.4 mph 29 % 0.0 in
16:55 33.3 °F 12.8 °F 1013.8 in SW 9.7 mph 14.5 mph 29 % 0.0 in
17:00 33.6 °F 13.6 °F 1013.8 in SW 10.3 mph 10.3 mph 30 % 0.0 in
17:05 33.0 °F 12.6 °F 1013.8 in SW 9.7 mph 20.9 mph 29 % 0.0 in
17:10 33.1 °F 12.7 °F 1013.8 in SW 8.0 mph 14.5 mph 29 % 0.0 in
17:15 33.0 °F 12.6 °F 1013.8 in SW 4.8 mph 16.1 mph 29 % 0.0 in
17:20 33.4 °F 12.9 °F 1013.8 in SW 8.0 mph 16.1 mph 29 % 0.0 in
17:25 33.2 °F 12.2 °F 1013.8 in SSW 3.2 mph 11.3 mph 28 % 0.0 in
17:30 33.2 °F 12.2 °F 1013.8 in SSW 4.8 mph 11.3 mph 28 % 0.0 in
17:35 33.3 °F 12.3 °F 1013.8 in WSW 13.0 mph 13.0 mph 28 % 0.0 in
17:40 33.5 °F 12.5 °F 1013.8 in SW 15.6 mph 15.6 mph 28 % 0.0 in
17:45 33.0 °F 12.1 °F 1013.8 in SSW 13.0 mph 13.0 mph 28 % 0.0 in
17:50 33.2 °F 12.2 °F 1013.8 in West 11.1 mph 11.1 mph 28 % 0.0 in
17:55 32.8 °F 11.9 °F 1013.8 in SSW 13.0 mph 13.0 mph 28 % 0.0 in
18:00 32.3 °F 11.4 °F 1013.8 in West 11.1 mph 11.1 mph 28 % 0.0 in
18:05 32.1 °F 11.3 °F 1013.8 in SSW 13.0 mph 13.0 mph 28 % 0.0 in
18:10 32.2 °F 11.4 °F 1013.8 in SSW 13.0 mph 13.0 mph 28 % 0.0 in
18:15 32.1 °F 11.3 °F 1013.8 in SW 9.3 mph 9.3 mph 28 % 0.0 in
18:20 31.9 °F 11.7 °F 1013.8 in South 16.1 mph 16.1 mph 29 % 0.0 in
18:25 31.6 °F 11.4 °F 1013.8 in SSW 14.8 mph 14.8 mph 29 % 0.0 in
18:30 31.5 °F 11.3 °F 1013.8 in SW 14.8 mph 14.8 mph 29 % 0.0 in
18:35 31.6 °F 11.4 °F 1013.8 in SW 14.8 mph 14.8 mph 29 % 0.0 in
18:40 31.2 °F 11.1 °F 1013.8 in SW 9.3 mph 9.3 mph 29 % 0.0 in
18:45 31.4 °F 11.2 °F 1013.8 in WSW 11.1 mph 11.1 mph 29 % 0.0 in
18:51 31.1 °F 10.9 °F 1013.8 in WSW 13.0 mph 13.0 mph 29 % 0.0 in
18:56 30.9 °F 11.3 °F 1013.8 in SW 9.3 mph 9.3 mph 30 % 0.0 in
19:01 30.8 °F 11.7 °F 1013.8 in SSW 13.0 mph 13.0 mph 31 % 0.0 in
19:06 30.6 °F 11.6 °F 1013.8 in South 7.4 mph 7.4 mph 31 % 0.0 in
19:11 30.5 °F 11.9 °F 1013.8 in West 7.6 mph 7.6 mph 32 % 0.0 in
19:15 23.7 °F 16.9 °F 1014.8 in SW 3.2 mph 4.8 mph 66 % 0.0 in
19:16 30.2 °F 12.2 °F 1013.8 in SW 13.0 mph 13.0 mph 33 % 0.0 in
19:17 30.2 °F 12.2 °F 1013.8 in SW 11.1 mph 11.1 mph 33 % 0.0 in
19:23 30.2 °F 11.7 °F 1013.8 in SW 9.3 mph 9.3 mph 32 % 0.0 in
19:25 23.6 °F 16.9 °F 1014.8 in SW 3.2 mph 4.8 mph 66 % 0.0 in
19:28 29.9 °F 11.4 °F 1013.8 in WSW 13.0 mph 13.0 mph 32 % 0.0 in
19:33 29.6 °F 11.6 °F 1013.8 in SW 13.7 mph 13.7 mph 33 % 0.0 in
19:35 23.5 °F 17.0 °F 1014.8 in SW 4.8 mph 4.8 mph 67 % 0.0 in
19:38 29.3 °F 10.9 °F 1013.8 in WSW 16.7 mph 16.7 mph 32 % 0.0 in
19:43 29.3 °F 10.9 °F 1013.8 in SW 5.6 mph 5.6 mph 32 % 0.0 in
19:45 23.5 °F 17.7 °F 1014.8 in Calm   1.6 mph 70 % 0.0 in
19:48 29.2 °F 10.8 °F 1013.8 in SW 9.3 mph 9.3 mph 32 % 0.0 in
19:53 29.1 °F 11.2 °F 1013.8 in SSW 9.7 mph 9.7 mph 33 % 0.0 in
19:55 23.5 °F 17.9 °F 1012.8 in NE 3.2 mph 6.4 mph 71 % 0.0 in
19:58 28.9 °F 11.9 °F 1013.8 in West 7.4 mph 7.4 mph 35 % 0.0 in
20:03 28.7 °F 11.7 °F 1013.8 in SW 11.1 mph 11.1 mph 35 % 0.0 in
20:05 23.5 °F 18.2 °F 1012.8 in NE 4.8 mph 9.7 mph 72 % 0.0 in
20:08 28.4 °F 11.9 °F 1013.8 in South 9.3 mph 9.3 mph 36 % 0.0 in
20:14 28.3 °F 11.8 °F 1013.8 in WSW 5.6 mph 5.6 mph 36 % 0.0 in
20:19 28.2 °F 11.7 °F 1013.8 in SW 9.3 mph 9.3 mph 36 % 0.0 in
20:24 28.0 °F 11.6 °F 1013.8 in SW 7.4 mph 7.4 mph 36 % 0.0 in
20:25 23.4 °F 17.8 °F 1013.8 in NE 3.2 mph 3.2 mph 71 % 0.0 in
20:29 27.6 °F 11.6 °F 1013.8 in SSW 5.6 mph 5.6 mph 37 % 0.0 in
20:34 27.5 °F 11.5 °F 1013.8 in WSW 6.1 mph 6.1 mph 37 % 0.0 in
20:35 23.4 °F 17.6 °F 1013.8 in WSW 3.2 mph 4.8 mph 70 % 0.0 in
20:39 27.3 °F 11.7 °F 1013.8 in SSW 5.6 mph 5.6 mph 38 % 0.0 in
20:44 27.1 °F 11.6 °F 1013.8 in WSW 3.7 mph 3.7 mph 38 % 0.0 in
20:45 23.4 °F 18.1 °F 1013.8 in Calm   3.2 mph 72 % 0.0 in
20:49 27.0 °F 11.9 °F 1013.8 in SW 3.7 mph 3.7 mph 39 % 0.0 in
20:54 26.9 °F 12.2 °F 1013.8 in SSW 5.6 mph 5.6 mph 40 % 0.0 in
20:59 26.6 °F 12.3 °F 1013.8 in SSE 7.6 mph 7.6 mph 41 % 0.0 in
21:05 26.5 °F 12.6 °F 1013.8 in SW 3.2 mph 9.7 mph 42 % 0.0 in
21:10 26.3 °F 13.1 °F 1014.8 in WSW 3.2 mph 9.7 mph 44 % 0.0 in
21:15 26.1 °F 13.2 °F 1014.8 in SW 3.2 mph 9.7 mph 45 % 0.0 in
21:20 25.9 °F 13.4 °F 1014.8 in SW 4.8 mph 9.7 mph 46 % 0.0 in
21:25 25.8 °F 13.6 °F 1015.8 in SW 4.8 mph 8.0 mph 47 % 0.0 in
21:30 25.7 °F 13.9 °F 1015.8 in SW 4.8 mph 9.7 mph 48 % 0.0 in
21:35 25.6 °F 14.4 °F 1015.8 in SW 3.2 mph 8.0 mph 50 % 0.0 in
21:40 25.5 °F 14.3 °F 1014.8 in SW 3.2 mph 8.0 mph 50 % 0.0 in
21:45 25.4 °F 14.6 °F 1014.8 in SW 4.8 mph 8.0 mph 51 % 0.0 in
21:50 25.3 °F 14.7 °F 1014.8 in South 1.9 mph   52 % 0.0 in
21:55 25.3 °F 15.1 °F 1014.8 in SSE 1.9 mph   53 % 0.0 in
22:00 25.2 °F 14.9 °F 1014.8 in WSW 3.7 mph 3.7 mph 53 % 0.0 in
22:05 25.2 °F 14.9 °F 1014.8 in WSW 2.6 mph   53 % 0.0 in
22:10 25.1 °F 14.8 °F 1014.8 in WSW 3.7 mph 3.7 mph 53 % 0.0 in
22:15 25.1 °F 15.1 °F 1014.8 in WSW 1.6 mph 1.6 mph 54 % 0.0 in
22:20 25.0 °F 15.1 °F 1014.8 in Calm   3.2 mph 54 % 0.0 in
22:25 25.0 °F 15.1 °F 1014.8 in SW 1.6 mph 4.8 mph 54 % 0.0 in
22:30 24.9 °F 15.2 °F 1014.8 in SW 3.2 mph 4.8 mph 55 % 0.0 in
22:35 24.8 °F 15.4 °F 1014.8 in SW 5.6 mph 5.6 mph 56 % 0.0 in
22:40 24.7 °F 15.3 °F 1014.8 in Calm   3.2 mph 56 % 0.0 in
22:45 24.6 °F 15.5 °F 1014.8 in Calm   1.6 mph 57 % 0.0 in
22:50 24.5 °F 15.4 °F 1014.8 in Calm   1.6 mph 57 % 0.0 in
22:55 24.5 °F 15.4 °F 1014.8 in SSW 1.6 mph 3.2 mph 57 % 0.0 in
23:00 24.5 °F 15.4 °F 1014.8 in Calm   3.2 mph 57 % 0.0 in
23:05 24.4 °F 15.3 °F 1014.8 in WSW 1.6 mph 3.2 mph 57 % 0.0 in
23:10 24.3 °F 15.2 °F 1014.8 in SW 3.7 mph 3.7 mph 57 % 0.0 in
23:15 24.2 °F 15.4 °F 1014.8 in SW 1.6 mph 3.2 mph 58 % 0.0 in
23:20 24.2 °F 15.4 °F 1014.8 in SW 3.2 mph 4.8 mph 58 % 0.0 in
23:25 24.1 °F 15.3 °F 1014.8 in SW 3.2 mph 4.8 mph 58 % 0.0 in
23:30 23.9 °F 15.7 °F 1014.8 in SW 1.6 mph 4.8 mph 60 % 0.0 in
23:35 23.8 °F 15.8 °F 1014.8 in SW 3.2 mph 4.8 mph 61 % 0.0 in
23:40 23.8 °F 15.8 °F 1014.8 in SW 3.2 mph 6.4 mph 61 % 0.0 in
23:45 23.7 °F 16.0 °F 1014.8 in SW 3.2 mph 4.8 mph 62 % 0.0 in
23:50 23.7 °F 16.0 °F 1014.8 in SW 3.2 mph 6.4 mph 62 % 0.0 in
23:55 23.7 °F 16.2 °F 1014.8 in SW 3.2 mph 8.0 mph 63 % 0.0 in
Meteo Sesrovires
Elogis d' Weather Underground - 1.5 mb

Guio original per  Jim McMurry - jmcmurry@mwt.net Adaptat per a la plantilla per  Wim van der Kuil - Leuven-Template.eu

Trobareu la nostra informacio del temps tambe a:

Weather Underground

AWEKAS